Time;durP1;ratioP1;P1;durP2;ratioP2;P2;SDS_P1;SDS_P2;PMS_P1;PMS_P2;Temp;Humidity;BMP_temperature;BMP_pressure;BME280_temperature;BME280_humidity;BME280_pressure;Samples;Min_cycle;Max_cycle;Signal;HPM_P1;HPM_P2
2022/10/28 00:01:19;;;;;;;;;;;17.00;99.90;;;;;;5089625;28;19915;-42
2022/10/28 00:03:49;;;;;;;;;;;17.00;99.90;;;;;;5081290;28;19909;-36
2022/10/28 00:06:16;;;;;;;;;;;16.90;99.90;;;;;;5072531;28;19912;-32
2022/10/28 00:08:41;;;;;;;;;;;16.90;99.90;;;;;;5073495;28;19965;-36
2022/10/28 00:11:08;;;;;;;;;;;17.00;99.90;;;;;;5070708;28;19908;-33
2022/10/28 00:13:34;;;;;;;;;;;17.10;99.90;;;;;;5071979;28;19958;-62
2022/10/28 00:16:04;;;;;;;;;;;17.10;99.90;;;;;;5070741;28;20334;-42
2022/10/28 00:18:29;;;;;;;;;;;17.10;99.90;;;;;;5073532;28;19911;-40
2022/10/28 00:20:58;;;;;;;;;;;17.10;99.90;;;;;;5073480;28;19909;-41
2022/10/28 00:23:24;;;;;;;;;;;17.00;99.90;;;;;;5071851;28;19904;-44
2022/10/28 00:25:49;;;;;;;;;;;17.00;99.90;;;;;;5070280;28;19919;-42
2022/10/28 00:28:14;;;;;;;;;;;17.00;99.90;;;;;;5073253;28;19919;-36
2022/10/28 00:30:40;;;;;;;;;;;17.00;99.90;;;;;;5085246;28;19908;-33
2022/10/28 00:33:05;;;;;;;;;;;17.00;99.90;;;;;;5090351;28;20360;-34
2022/10/28 00:35:31;;;;;;;;;;;17.10;99.90;;;;;;5073020;28;19948;-33
2022/10/28 00:37:56;;;;;;;;;;;17.10;99.90;;;;;;5073038;28;19912;-39
2022/10/28 00:40:22;;;;;;;;;;;17.10;99.90;;;;;;5071901;28;19909;-36
2022/10/28 00:42:47;;;;;;;;;;;17.10;99.90;;;;;;5073075;28;19908;-35
2022/10/28 00:45:13;;;;;;;;;;;17.00;99.90;;;;;;5079427;28;22010;-32
2022/10/28 00:47:42;;;;;;;;;;;17.10;99.90;;;;;;5072978;28;19913;-34
2022/10/28 00:50:10;;;;;;;;;;;17.00;99.90;;;;;;5077151;28;19958;-33
2022/10/28 00:52:35;;;;;;;;;;;17.00;99.90;;;;;;5077072;28;19904;-31
2022/10/28 00:55:01;;;;;;;;;;;17.00;99.90;;;;;;5075639;28;19951;-32
2022/10/28 00:57:29;;;;;;;;;;;17.00;99.90;;;;;;5076962;28;19961;-38
2022/10/28 00:59:55;;;;;;;;;;;16.90;99.90;;;;;;5080366;28;19904;-36
2022/10/28 01:02:21;;;;;;;;;;;16.90;99.90;;;;;;5073087;28;19999;-37
2022/10/28 01:04:46;;;;;;;;;;;16.80;99.90;;;;;;5075642;28;19911;-34
2022/10/28 01:07:13;;;;;;;;;;;16.80;99.90;;;;;;5076770;28;20361;-49
2022/10/28 01:09:39;;;;;;;;;;;16.80;99.90;;;;;;5075073;28;19986;-35
2022/10/28 01:12:23;;;;;;;;;;;16.80;99.90;;;;;;5076687;28;19954;-33
2022/10/28 01:15:07;;;;;;;;;;;16.70;99.90;;;;;;5075148;28;19962;-33
2022/10/28 01:17:52;;;;;;;;;;;16.70;99.90;;;;;;5076932;28;19912;-36
2022/10/28 01:20:23;;;;;;;;;;;16.80;99.90;;;;;;5085132;28;20006;-36
2022/10/28 01:23:03;;;;;;;;;;;16.70;99.90;;;;;;5092883;28;19911;-37
2022/10/28 01:25:37;;;;;;;;;;;16.70;99.90;;;;;;5076559;28;20353;-36
2022/10/28 01:28:02;;;;;;;;;;;16.70;99.90;;;;;;5074804;28;19930;-42
2022/10/28 01:30:37;;;;;;;;;;;16.70;99.90;;;;;;5074582;28;20423;-44
2022/10/28 01:33:03;;;;;;;;;;;16.70;99.90;;;;;;5074252;28;19909;-42
2022/10/28 01:35:31;;;;;;;;;;;16.70;99.90;;;;;;5075773;28;19915;-44
2022/10/28 01:37:59;;;;;;;;;;;16.70;99.90;;;;;;5074874;28;20372;-42
2022/10/28 01:40:47;;;;;;;;;;;16.70;99.90;;;;;;5078702;28;19908;-38
2022/10/28 01:43:35;;;;;;;;;;;16.60;99.90;;;;;;5073054;28;20399;-42
2022/10/28 01:46:07;;;;;;;;;;;16.60;99.90;;;;;;5039813;28;21078;-48
2022/10/28 01:48:52;;;;;;;;;;;16.50;99.90;;;;;;5078449;28;20355;-43
2022/10/28 01:53:05;;;;;;;15.07;5.93;;;16.50;99.90;;;;;;5119130;27;20643;-42
2022/10/28 01:55:37;;;;;;;10.77;5.65;;;16.50;99.90;;;;;;5113769;27;20106;-44
2022/10/28 01:58:05;;;;;;;14.55;5.95;;;16.50;99.90;;;;;;5107827;28;20027;-39
2022/10/28 02:00:32;;;;;;;11.30;5.53;;;16.40;99.90;;;;;;5106351;28;20050;-46
2022/10/28 02:02:58;;;;;;;12.57;5.55;;;16.30;99.90;;;;;;5104720;28;20456;-42
2022/10/28 02:05:42;;;;;;;12.57;6.13;;;16.30;99.90;;;;;;5108415;28;20488;-41
2022/10/28 02:08:41;;;;;;;12.43;5.90;;;16.30;99.90;;;;;;5107885;28;20028;-42
2022/10/28 02:11:24;;;;;;;18.25;6.80;;;16.30;99.90;;;;;;5107339;28;20564;-39
2022/10/28 02:14:03;;;;;;;16.08;6.63;;;16.30;99.90;;;;;;5107486;28;20028;-42
2022/10/28 02:16:48;;;;;;;14.90;6.05;;;16.20;99.90;;;;;;5105458;28;20099;-40
2022/10/28 02:19:36;;;;;;;11.48;6.93;;;16.20;99.90;;;;;;5101675;28;20129;-42
2022/10/28 02:22:23;;;;;;;26.50;6.50;;;16.30;99.90;;;;;;5100096;28;20066;-41
2022/10/28 02:25:01;;;;;;;14.50;6.50;;;16.30;99.90;;;;;;5116322;28;20067;-42
2022/10/28 02:27:35;;;;;;;17.23;6.68;;;16.30;99.90;;;;;;5121928;28;20487;-42
2022/10/28 02:30:06;;;;;;;9.55;5.63;;;16.30;99.90;;;;;;5102755;28;20055;-42
2022/10/28 02:32:37;;;;;;;11.73;5.45;;;16.20;99.90;;;;;;5102355;28;20387;-40
2022/10/28 02:35:08;;;;;;;10.73;6.72;;;16.20;99.90;;;;;;5099798;28;20031;-41
2022/10/28 02:37:37;;;;;;;27.63;6.00;;;16.20;99.90;;;;;;5090700;28;20024;-42
2022/10/28 02:40:09;;;;;;;9.38;5.85;;;16.20;99.90;;;;;;5097152;28;20515;-42
2022/10/28 02:42:39;;;;;;;17.25;6.07;;;16.20;99.90;;;;;;5093539;28;20440;-41
2022/10/28 02:45:13;;;;;;;14.10;5.50;;;16.20;99.90;;;;;;5087343;28;20028;-41
2022/10/28 02:47:45;;;;;;;14.20;5.75;;;16.20;99.90;;;;;;5090744;28;20392;-39
2022/10/28 02:50:17;;;;;;;12.00;5.13;;;16.20;99.90;;;;;;5092424;28;20448;-44
2022/10/28 02:52:47;;;;;;;12.77;5.70;;;16.20;99.90;;;;;;5092716;28;20096;-43
2022/10/28 02:55:13;;;;;;;17.42;5.50;;;16.20;99.90;;;;;;5091509;28;20504;-42
2022/10/28 02:57:47;;;;;;;14.00;5.85;;;16.20;99.90;;;;;;5109657;28;20103;-44
2022/10/28 03:00:21;;;;;;;11.20;5.68;;;16.20;99.90;;;;;;5105058;28;20383;-41
2022/10/28 03:02:46;;;;;;;10.98;5.18;;;16.20;99.90;;;;;;5084474;28;20031;-43
2022/10/28 03:05:13;;;;;;;14.25;5.32;;;16.20;99.90;;;;;;5090302;28;20028;-41
2022/10/28 03:07:39;;;;;;;8.43;5.20;;;16.20;99.90;;;;;;5090838;28;20042;-45
2022/10/28 03:10:05;;;;;;;15.73;5.60;;;16.20;99.90;;;;;;5077445;28;20028;-42
2022/10/28 03:12:30;;;;;;;9.57;5.57;;;16.20;99.90;;;;;;5095627;28;20433;-55
2022/10/28 03:14:56;;;;;;;11.65;5.00;;;16.20;99.90;;;;;;5079207;28;20085;-41
2022/10/28 03:17:22;;;;;;;15.48;5.45;;;16.10;99.90;;;;;;5084280;28;20065;-44
2022/10/28 03:19:47;;;;;;;20.08;5.88;;;16.10;99.90;;;;;;5079711;28;20503;-42
2022/10/28 03:22:13;;;;;;;11.15;5.30;;;16.10;99.90;;;;;;5082795;28;20108;-43
2022/10/28 03:24:38;;;;;;;15.27;4.72;;;16.10;99.90;;;;;;5081742;28;20107;-41
2022/10/28 03:27:04;;;;;;;9.38;4.55;;;16.10;99.90;;;;;;5080941;28;20499;-45
2022/10/28 03:29:29;;;;;;;6.68;4.78;;;16.20;99.90;;;;;;5073950;28;20031;-41
2022/10/28 03:31:55;;;;;;;11.52;4.97;;;16.20;99.90;;;;;;5081583;28;20028;-40
2022/10/28 03:34:21;;;;;;;16.05;5.72;;;16.10;99.90;;;;;;5075380;28;20020;-41
2022/10/28 03:36:46;;;;;;;14.90;5.50;;;16.00;99.90;;;;;;5090533;28;20020;-34
2022/10/28 03:39:12;;;;;;;14.43;5.60;;;16.00;99.90;;;;;;5088886;28;20020;-32
2022/10/28 03:41:38;;;;;;;18.05;5.13;;;16.00;99.90;;;;;;5080620;28;20050;-37
2022/10/28 03:44:03;;;;;;;14.30;6.05;;;16.00;99.90;;;;;;5074888;28;20078;-39
2022/10/28 03:46:29;;;;;;;8.52;5.10;;;16.00;99.90;;;;;;5075004;28;20496;-34
2022/10/28 03:48:55;;;;;;;14.70;4.88;;;16.10;99.90;;;;;;5081043;28;20103;-34
2022/10/28 03:51:20;;;;;;;11.15;4.88;;;16.20;99.90;;;;;;5073726;28;20045;-42
2022/10/28 03:53:46;;;;;;;9.40;5.15;;;16.10;99.90;;;;;;5073878;28;20122;-43
2022/10/28 03:56:11;;;;;;;11.55;5.90;;;16.10;99.90;;;;;;5081736;28;20025;-34
2022/10/28 03:58:37;;;;;;;9.25;5.03;;;16.20;99.90;;;;;;5089769;28;20391;-42
2022/10/28 04:01:04;;;;;;;12.82;5.25;;;16.20;99.90;;;;;;5083378;28;20040;-42
2022/10/28 04:03:29;;;;;;;6.32;3.90;;;16.20;99.90;;;;;;5085666;28;20032;-41
2022/10/28 04:05:55;;;;;;;11.13;5.05;;;16.20;99.90;;;;;;5079404;28;20077;-41
2022/10/28 04:08:20;;;;;;;14.23;4.38;;;16.20;99.90;;;;;;5093962;28;20115;-38
2022/10/28 04:10:47;;;;;;;12.77;4.82;;;16.20;99.90;;;;;;5088532;28;20032;-41
2022/10/28 04:13:13;;;;;;;8.80;4.57;;;16.20;99.90;;;;;;5094511;28;20054;-43
2022/10/28 04:15:39;;;;;;;8.93;5.47;;;16.20;99.90;;;;;;5084562;28;20473;-40
2022/10/28 04:18:04;;;;;;;9.90;5.28;;;16.20;99.90;;;;;;5094371;28;20028;-42
2022/10/28 04:20:30;;;;;;;13.23;4.55;;;16.20;99.90;;;;;;5076204;28;20024;-40
2022/10/28 04:22:56;;;;;;;18.70;4.20;;;16.20;99.90;;;;;;5078950;28;20107;-44
2022/10/28 04:25:24;;;;;;;12.82;4.35;;;16.20;99.90;;;;;;5080644;28;20103;-41
2022/10/28 04:27:49;;;;;;;13.63;5.13;;;16.20;99.90;;;;;;5082557;28;20063;-32
2022/10/28 04:30:16;;;;;;;12.52;4.43;;;16.20;99.90;;;;;;5079233;28;20063;-39
2022/10/28 04:32:42;;;;;;;7.60;4.40;;;16.20;99.90;;;;;;5073200;28;20447;-36
2022/10/28 04:35:27;;;;;;;16.85;4.97;;;16.20;99.90;;;;;;5077056;28;20476;-31
2022/10/28 04:37:52;;;;;;;8.43;4.68;;;16.30;99.90;;;;;;5084480;28;20111;-35
2022/10/28 04:40:18;;;;;;;13.15;3.88;;;16.20;99.90;;;;;;5087213;28;20522;-31
2022/10/28 04:42:43;;;;;;;10.55;4.47;;;16.20;99.90;;;;;;5089476;28;20032;-38
2022/10/28 04:45:09;;;;;;;9.48;4.75;;;16.20;99.90;;;;;;5084470;28;20032;-31
2022/10/28 04:47:35;;;;;;;18.15;4.68;;;16.30;99.90;;;;;;5093814;28;20567;-35
2022/10/28 04:50:02;;;;;;;9.30;3.90;;;16.30;99.90;;;;;;5082051;28;20028;-37
2022/10/28 04:52:27;;;;;;;14.50;5.25;;;16.30;99.90;;;;;;5085415;28;20524;-33
2022/10/28 04:54:53;;;;;;;10.93;4.88;;;16.30;99.90;;;;;;5076802;28;20031;-32
2022/10/28 04:57:18;;;;;;;15.27;3.90;;;16.30;99.90;;;;;;5080878;28;20081;-32
2022/10/28 04:59:45;;;;;;;7.13;3.40;;;16.30;99.90;;;;;;5072571;28;20052;-32
2022/10/28 05:02:11;;;;;;;18.05;5.60;;;16.30;99.90;;;;;;5073474;28;20047;-36
2022/10/28 05:04:36;;;;;;;9.55;3.67;;;16.20;99.90;;;;;;5087821;28;20024;-41
2022/10/28 05:07:02;;;;;;;10.98;4.25;;;16.20;99.90;;;;;;5076964;28;20450;-42
2022/10/28 05:09:27;;;;;;;10.23;4.22;;;16.20;99.90;;;;;;5075686;28;20028;-41
2022/10/28 05:11:53;;;;;;;11.82;4.40;;;16.20;99.90;;;;;;5093537;28;20439;-43
2022/10/28 05:14:19;;;;;;;14.82;3.95;;;16.20;99.90;;;;;;5076220;28;20096;-34
2022/10/28 05:16:44;;;;;;;14.95;3.80;;;16.20;99.90;;;;;;5078837;28;20532;-32
2022/10/28 05:19:10;;;;;;;9.93;4.13;;;16.20;99.90;;;;;;5072976;28;20017;-39
2022/10/28 05:21:35;;;;;;;16.95;4.20;;;16.20;99.90;;;;;;5080734;28;20020;-31
2022/10/28 05:24:01;;;;;;;10.35;4.15;;;16.20;99.90;;;;;;5091663;28;20395;-32
2022/10/28 05:26:27;;;;;;;7.97;3.92;;;16.20;99.90;;;;;;5082663;28;20028;-34
2022/10/28 05:28:52;;;;;;;9.65;3.85;;;16.20;99.90;;;;;;5075601;28;20063;-32
2022/10/28 05:31:18;;;;;;;7.47;4.30;;;16.20;99.90;;;;;;5081022;28;20024;-34
2022/10/28 05:33:43;;;;;;;10.90;4.57;;;16.30;99.90;;;;;;5085015;28;20020;-33
2022/10/28 05:36:09;;;;;;;17.13;3.78;;;16.30;99.90;;;;;;5089210;28;20031;-38
2022/10/28 05:38:35;;;;;;;14.18;4.28;;;16.30;99.90;;;;;;5087313;28;20016;-36
2022/10/28 05:41:00;;;;;;;12.95;3.65;;;16.20;99.90;;;;;;5084295;28;20028;-37
2022/10/28 05:43:26;;;;;;;13.25;4.18;;;16.20;99.90;;;;;;5073177;28;20024;-41
2022/10/28 05:45:53;;;;;;;15.27;4.63;;;16.20;99.90;;;;;;5085024;28;20036;-34
2022/10/28 05:48:19;;;;;;;10.60;4.25;;;16.20;99.90;;;;;;5076200;28;20514;-33
2022/10/28 05:50:44;;;;;;;11.10;3.65;;;16.20;99.90;;;;;;5073751;28;20056;-32
2022/10/28 05:53:10;;;;;;;10.75;4.03;;;16.20;99.90;;;;;;5091907;28;20043;-37
2022/10/28 05:55:36;;;;;;;4.85;3.40;;;16.30;99.90;;;;;;5091011;28;20474;-34
2022/10/28 05:58:02;;;;;;;20.17;4.10;;;16.20;99.90;;;;;;5074435;28;20029;-35
2022/10/28 06:00:27;;;;;;;12.80;3.35;;;16.20;99.90;;;;;;5076192;28;20167;-39
2022/10/28 06:03:08;;;;;;;13.60;3.85;;;16.20;99.90;;;;;;5080694;28;20021;-37
2022/10/28 06:05:35;;;;;;;8.85;3.28;;;16.20;99.90;;;;;;5088239;28;20032;-37
2022/10/28 06:08:02;;;;;;;5.47;3.75;;;16.20;99.90;;;;;;5079701;28;20481;-36
2022/10/28 06:10:28;;;;;;;10.23;3.85;;;16.20;99.90;;;;;;5072010;28;20502;-35
2022/10/28 06:12:55;;;;;;;15.23;3.80;;;16.20;99.90;;;;;;5071925;28;20028;-32
2022/10/28 06:15:20;;;;;;;9.00;4.03;;;16.30;99.90;;;;;;5072528;28;20032;-33
2022/10/28 06:17:49;;;;;;;15.30;4.45;;;16.30;99.90;;;;;;5073818;28;20290;-34
2022/10/28 06:20:15;;;;;;;13.00;3.88;;;16.30;99.90;;;;;;5083553;28;20485;-32
2022/10/28 06:22:52;;;;;;;8.07;4.20;;;16.30;99.90;;;;;;5084128;28;20472;-37
2022/10/28 06:25:19;;;;;;;10.30;3.38;;;16.30;99.90;;;;;;5088470;28;20107;-33
2022/10/28 06:27:45;;;;;;;8.52;3.72;;;16.30;99.90;;;;;;5091317;28;20085;-32
2022/10/28 06:30:11;;;;;;;7.30;3.63;;;16.30;99.90;;;;;;5089092;28;20035;-36
2022/10/28 06:32:37;;;;;;;9.75;3.42;;;16.40;99.90;;;;;;5074711;28;20029;-36
2022/10/28 06:35:03;;;;;;;13.27;3.60;;;16.40;99.90;;;;;;5085178;28;20557;-33
2022/10/28 06:37:28;;;;;;;12.40;3.63;;;16.50;99.90;;;;;;5070689;28;20024;-32
2022/10/28 06:39:55;;;;;;;9.57;3.35;;;16.50;99.90;;;;;;5085132;28;20562;-33
2022/10/28 06:42:20;;;;;;;20.35;4.78;;;16.40;99.90;;;;;;5095430;28;20047;-36
2022/10/28 06:44:46;;;;;;;8.80;3.90;;;16.40;99.90;;;;;;5092131;28;20060;-34
2022/10/28 06:47:11;;;;;;;3.88;3.10;;;16.40;99.90;;;;;;5079908;28;20024;-32
2022/10/28 06:49:37;;;;;;;11.20;3.95;;;16.40;99.90;;;;;;5078249;28;20044;-36
2022/10/28 06:52:03;;;;;;;14.07;3.50;;;16.40;99.90;;;;;;5094359;28;20054;-40
2022/10/28 06:54:28;;;;;;;7.68;3.88;;;16.40;99.90;;;;;;5094812;28;20445;-39
2022/10/28 06:56:54;;;;;;;10.82;3.92;;;16.40;99.90;;;;;;5075635;28;20032;-32
2022/10/28 06:59:20;;;;;;;14.25;4.15;;;16.50;99.90;;;;;;5075067;28;20507;-38
2022/10/28 07:01:45;;;;;;;11.35;4.07;;;16.50;99.90;;;;;;5075060;28;20137;-39
2022/10/28 07:04:12;;;;;;;16.48;3.97;;;16.40;99.90;;;;;;5080619;28;20082;-35
2022/10/28 07:06:38;;;;;;;14.57;4.35;;;16.40;99.90;;;;;;5086601;28;20532;-31
2022/10/28 07:09:05;;;;;;;14.98;4.70;;;16.40;99.90;;;;;;5089989;28;20476;-36
2022/10/28 07:11:30;;;;;;;13.90;4.47;;;16.50;99.90;;;;;;5082756;28;20535;-34
2022/10/28 07:13:56;;;;;;;11.88;3.53;;;16.50;99.90;;;;;;5074619;28;20159;-34
2022/10/28 07:16:21;;;;;;;11.32;4.18;;;16.50;99.90;;;;;;5081656;28;20024;-37
2022/10/28 07:18:47;;;;;;;7.53;3.95;;;16.50;99.90;;;;;;5079329;28;20541;-35
2022/10/28 07:21:13;;;;;;;13.18;4.35;;;16.50;99.90;;;;;;5086604;28;20029;-35
2022/10/28 07:23:38;;;;;;;8.77;4.22;;;16.60;99.90;;;;;;5091374;28;20032;-33
2022/10/28 07:26:04;;;;;;;10.50;4.32;;;16.60;99.90;;;;;;5083831;28;20021;-35
2022/10/28 07:28:30;;;;;;;11.05;4.07;;;16.60;99.90;;;;;;5080796;28;20457;-41
2022/10/28 07:31:01;;;;;;;16.45;4.75;;;16.60;99.90;;;;;;5086728;28;20025;-35
2022/10/28 07:33:26;;;;;;;14.95;4.15;;;16.60;99.90;;;;;;5088882;28;20083;-47
2022/10/28 07:35:52;;;;;;;10.82;4.35;;;16.60;99.90;;;;;;5089121;28;20020;-39
2022/10/28 07:38:18;;;;;;;19.70;4.63;;;16.60;99.90;;;;;;5083180;28;20048;-35
2022/10/28 07:40:43;;;;;;;7.35;4.47;;;16.70;99.90;;;;;;5081421;28;20096;-39
2022/10/28 07:43:09;;;;;;;13.18;4.72;;;16.80;99.90;;;;;;5074914;28;20024;-36
2022/10/28 07:45:35;;;;;;;9.63;3.97;;;16.80;99.90;;;;;;5080731;28;20115;-34
2022/10/28 07:48:02;;;;;;;13.43;4.07;;;16.80;99.90;;;;;;5082227;28;20056;-36
2022/10/28 07:50:28;;;;;;;18.55;4.40;;;16.90;99.90;;;;;;5073405;28;20051;-51
2022/10/28 07:52:53;;;;;;;10.68;4.15;;;17.00;99.90;;;;;;5074983;28;20447;-42
2022/10/28 07:55:20;;;;;;;7.50;3.65;;;17.10;99.90;;;;;;5083275;28;20032;-43
2022/10/28 07:57:46;;;;;;;10.20;4.40;;;17.20;99.90;;;;;;5076191;28;20031;-43
2022/10/28 08:00:12;;;;;;;17.38;3.75;;;17.30;99.90;;;;;;5081894;28;20028;-42
2022/10/28 08:02:39;;;;;;;11.10;3.47;;;17.40;99.90;;;;;;5093121;28;20464;-43
2022/10/28 08:05:05;;;;;;;9.80;3.13;;;17.60;99.90;;;;;;5079733;28;20373;-42
2022/10/28 08:07:31;;;;;;;15.75;3.50;;;17.60;99.90;;;;;;5081295;28;20415;-49
2022/10/28 08:09:57;;;;;;;13.23;3.75;;;17.60;99.90;;;;;;5086711;28;20082;-41
2022/10/28 08:12:23;;;;;;;17.40;5.15;;;17.60;99.90;;;;;;5092740;28;20560;-43
2022/10/28 08:14:49;;;;;;;15.85;4.60;;;17.70;99.90;;;;;;5087250;28;20067;-57
2022/10/28 08:17:14;;;;;;;8.05;3.97;;;17.70;99.90;;;;;;5076161;28;20031;-44
2022/10/28 08:19:40;;;;;;;10.32;3.50;;;17.80;99.90;;;;;;5076569;28;20038;-45
2022/10/28 08:22:06;;;;;;;11.20;4.35;;;18.00;99.90;;;;;;5086600;28;20107;-42
2022/10/28 08:24:32;;;;;;;14.02;3.55;;;18.10;99.90;;;;;;5082819;28;20104;-42
2022/10/28 08:26:58;;;;;;;9.18;4.63;;;18.20;99.90;;;;;;5086810;28;20500;-42
2022/10/28 08:29:23;;;;;;;15.95;4.55;;;18.20;99.90;;;;;;5082901;28;20055;-42
2022/10/28 08:31:49;;;;;;;11.93;3.60;;;18.30;99.90;;;;;;5080972;28;20119;-46
2022/10/28 08:34:15;;;;;;;12.52;4.45;;;18.30;99.90;;;;;;5077614;28;20449;-43
2022/10/28 08:36:40;;;;;;;12.85;3.75;;;18.30;99.90;;;;;;5078306;28;20025;-45
2022/10/28 08:39:06;;;;;;;13.18;3.33;;;18.30;99.90;;;;;;5087778;28;20030;-39
2022/10/28 08:41:43;;;;;;;12.27;3.80;;;18.30;99.90;;;;;;5085234;28;20500;-59
2022/10/28 08:44:14;;;;;;;11.88;4.53;;;18.40;99.90;;;;;;5075292;28;20040;-42
2022/10/28 08:47:02;;;;;;;9.20;3.97;;;18.50;99.90;;;;;;5083277;28;20543;-41
2022/10/28 08:49:31;;;;;;;11.98;3.75;;;18.40;99.90;;;;;;5081081;28;20039;-40
2022/10/28 08:52:22;;;;;;;15.57;4.90;;;18.50;99.90;;;;;;5079654;28;20115;-41
2022/10/28 08:54:56;;;;;;;14.18;3.83;;;18.50;99.90;;;;;;5079198;28;20120;-41
2022/10/28 08:57:45;;;;;;;16.52;3.72;;;18.60;99.90;;;;;;5093826;28;20024;-42
2022/10/28 09:00:24;;;;;;;11.50;4.15;;;18.70;99.90;;;;;;5083216;28;20040;-42
2022/10/28 09:02:55;;;;;;;7.88;3.40;;;18.90;99.90;;;;;;5075724;28;20028;-41
2022/10/28 09:05:23;;;;;;;9.93;3.58;;;18.90;99.90;;;;;;5080126;28;20176;-41
2022/10/28 09:07:50;;;;;;;11.15;3.70;;;18.90;99.90;;;;;;5090693;28;20391;-42
2022/10/28 09:10:19;;;;;;;7.75;3.67;;;19.00;99.90;;;;;;5091192;28;20028;-41
2022/10/28 09:13:01;;;;;;;15.98;4.55;;;19.10;99.90;;;;;;5084501;28;20494;-43
2022/10/28 09:15:45;;;;;;;10.48;3.78;;;19.10;99.90;;;;;;5081344;28;20056;-44
2022/10/28 09:18:18;;;;;;;14.23;4.03;;;19.10;99.90;;;;;;5082037;28;20027;-45
2022/10/28 09:21:01;;;;;;;12.60;3.83;;;19.20;99.90;;;;;;5074617;28;20017;-44
2022/10/28 09:23:31;;;;;;;9.35;3.30;;;19.30;99.90;;;;;;5086990;28;20107;-42
2022/10/28 09:25:59;;;;;;;13.68;5.07;;;19.30;99.90;;;;;;5080176;28;20116;-44
2022/10/28 09:28:30;;;;;;;8.80;3.38;;;19.30;99.90;;;;;;5073074;28;20475;-44
2022/10/28 09:31:09;;;;;;;11.05;4.28;;;19.30;99.90;;;;;;5074413;28;20037;-43
2022/10/28 09:33:49;;;;;;;9.02;4.03;;;19.20;99.90;;;;;;5079636;28;20032;-46
2022/10/28 09:36:26;;;;;;;13.27;3.85;;;19.20;99.90;;;;;;5091295;28;20546;-43
2022/10/28 09:38:56;;;;;;;14.77;3.78;;;19.30;99.90;;;;;;5080381;28;20388;-48
2022/10/28 09:41:23;;;;;;;10.43;3.72;;;19.20;99.90;;;;;;5074178;28;20031;-40
2022/10/28 09:44:21;;;;;;;12.95;4.75;;;19.20;99.90;;;;;;5080747;28;20043;-48
2022/10/28 09:46:51;;;;;;;11.82;3.50;;;19.30;99.90;;;;;;5071087;28;20097;-47
2022/10/28 09:49:34;;;;;;;10.63;3.70;;;19.40;99.90;;;;;;5086486;28;20032;-47
2022/10/28 09:52:07;;;;;;;12.23;3.30;;;19.50;99.90;;;;;;5080831;28;20369;-40
2022/10/28 09:54:36;;;;;;;9.65;3.85;;;19.50;99.90;;;;;;5085458;28;20056;-47
2022/10/28 09:57:03;;;;;;;17.00;3.83;;;19.60;99.90;;;;;;5090379;28;20099;-40
2022/10/28 09:59:29;;;;;;;14.15;4.25;;;19.60;99.90;;;;;;5088948;28;20028;-41
2022/10/28 10:01:55;;;;;;;8.60;4.18;;;19.70;99.90;;;;;;5080041;28;20365;-42
2022/10/28 10:04:23;;;;;;;11.05;4.50;;;19.70;99.90;;;;;;5086303;28;20035;-41
2022/10/28 10:06:54;;;;;;;13.20;4.03;;;19.70;99.90;;;;;;5073768;28;20037;-41
2022/10/28 10:09:24;;;;;;;22.77;4.88;;;19.80;99.90;;;;;;5089457;28;20024;-40
2022/10/28 10:11:54;;;;;;;15.85;4.05;;;20.00;99.90;;;;;;5092820;28;20036;-42
2022/10/28 10:14:29;;;;;;;9.50;3.50;;;20.10;99.90;;;;;;5096037;28;20032;-44
2022/10/28 10:17:09;;;;;;;14.63;3.72;;;20.20;99.90;;;;;;5084724;28;20024;-41
2022/10/28 10:20:07;;;;;;;15.02;4.72;;;20.30;99.90;;;;;;5096507;28;20086;-43
2022/10/28 10:22:36;;;;;;;13.27;3.40;;;20.30;99.90;;;;;;5096666;28;20024;-41
2022/10/28 10:25:03;;;;;;;14.15;4.00;;;20.30;99.90;;;;;;5095969;28;20473;-41
2022/10/28 10:27:30;;;;;;;14.68;3.58;;;20.40;99.90;;;;;;5090996;28;20040;-43
2022/10/28 10:29:57;;;;;;;9.70;3.27;;;20.50;99.90;;;;;;5080654;28;20012;-41
2022/10/28 10:32:30;;;;;;;7.97;3.47;;;20.60;99.90;;;;;;5081500;28;20036;-43
2022/10/28 10:35:00;;;;;;;11.02;3.97;;;20.70;99.90;;;;;;5081264;28;20094;-44
2022/10/28 10:37:28;;;;;;;21.48;4.13;;;20.80;99.90;;;;;;5085292;28;20506;-44
2022/10/28 10:40:19;;;;;;;7.75;3.40;;;20.90;99.90;;;;;;5080364;28;20033;-42
2022/10/28 10:42:46;;;;;;;9.48;4.03;;;21.00;99.90;;;;;;5088467;28;20189;-42
2022/10/28 10:45:15;;;;;;;9.52;3.55;;;21.00;99.90;;;;;;5087662;28;20028;-43
2022/10/28 10:47:41;;;;;;;10.98;3.17;;;21.00;99.90;;;;;;5082293;28;20040;-44
2022/10/28 10:50:19;;;;;;;9.95;3.45;;;21.10;99.90;;;;;;5089125;28;20473;-40
2022/10/28 10:52:56;;;;;;;9.07;3.13;;;21.30;99.90;;;;;;5089612;28;20488;-43
2022/10/28 10:55:47;;;;;;;11.30;3.15;;;21.30;99.90;;;;;;5094501;28;20479;-45
2022/10/28 10:58:17;;;;;;;9.93;3.42;;;21.40;99.90;;;;;;5084314;28;20032;-42
2022/10/28 11:01:04;;;;;;;11.32;3.47;;;21.50;99.90;;;;;;5082580;28;20016;-39
2022/10/28 11:03:47;;;;;;;;;;;21.40;99.90;;;;;;5079328;28;20094;-41
2022/10/28 11:06:24;;;;;;;14.55;3.88;;;21.40;99.90;;;;;;5075649;28;19951;-40
2022/10/28 11:09:01;;;;;;;8.48;3.05;;;21.40;99.90;;;;;;5074789;28;20504;-42
2022/10/28 11:11:39;;;;;;;8.10;3.10;;;21.50;99.90;;;;;;5075840;28;20565;-40
2022/10/28 11:14:28;;;;;;;7.65;3.05;;;21.50;99.90;;;;;;5075708;28;20040;-40
2022/10/28 11:16:56;;;;;;;10.25;4.03;;;21.40;99.90;;;;;;5086770;28;20027;-43
2022/10/28 11:19:32;;;;;;;14.45;3.47;;;21.40;99.90;;;;;;5086895;28;20032;-42
2022/10/28 11:22:28;;;;;;;13.27;2.63;;;21.40;99.90;;;;;;5075489;28;20033;-43
2022/10/28 11:25:22;;;;;;;15.70;3.85;;;21.50;99.90;;;;;;5086106;28;20032;-41
2022/10/28 11:27:50;;;;;;;8.52;2.72;;;21.60;99.90;;;;;;5095373;28;20036;-41
2022/10/28 11:30:19;;;;;;;6.50;3.05;;;21.50;99.90;;;;;;5086484;28;20040;-41
2022/10/28 11:32:57;;;;;;;11.88;3.13;;;21.60;99.90;;;;;;5075769;28;20527;-41
2022/10/28 11:35:31;;;;;;;8.95;3.88;;;21.70;99.90;;;;;;5077889;28;20024;-41
2022/10/28 11:38:23;;;;;;;10.48;3.28;;;21.80;99.90;;;;;;5080368;28;20028;-44
2022/10/28 11:41:16;;;;;;;11.48;2.67;;;21.90;99.90;;;;;;5087073;28;20096;-38
2022/10/28 11:43:45;;;;;;;11.40;3.25;;;21.90;99.90;;;;;;5095371;28;20542;-31
2022/10/28 11:46:29;;;;;;;12.55;3.10;;;22.00;99.90;;;;;;5074379;28;20024;-31
2022/10/28 11:49:12;;;;;;;9.82;3.72;;;21.90;99.90;;;;;;5085575;28;20035;-36
2022/10/28 11:51:56;;;;;;;11.98;2.92;;;21.90;99.90;;;;;;5075367;28;20041;-32
2022/10/28 11:55:04;;;;;;;7.40;2.88;;;21.90;99.90;;;;;;5076037;28;20071;-38
2022/10/28 11:58:12;;;;;;;11.60;3.53;;;21.90;99.90;;;;;;5074078;28;20112;-40
2022/10/28 12:01:22;;;;;;;12.52;3.40;;;21.90;99.90;;;;;;5073267;28;20584;-65
2022/10/28 12:04:19;;;;;;;12.20;3.03;;;22.00;99.90;;;;;;5073599;28;20025;-42
2022/10/28 12:06:50;;;;;;;;;;;21.90;99.90;;;;;;5079970;28;20044;-43
2022/10/28 12:09:31;;;;;;;11.45;2.88;;;21.90;99.90;;;;;;5093836;28;20364;-42
2022/10/28 12:12:11;;;;;;;23.30;4.05;;;21.90;99.90;;;;;;5093584;28;20115;-40
2022/10/28 12:14:48;;;;;;;7.45;2.97;;;21.90;99.90;;;;;;5074312;28;20025;-41
2022/10/28 12:17:39;;;;;;;14.48;3.70;;;21.90;99.90;;;;;;5085506;28;20444;-41
2022/10/28 12:20:16;;;;;;;8.75;3.00;;;21.90;99.90;;;;;;5077594;28;20024;-45
2022/10/28 12:22:49;;;;;;;12.57;3.53;;;21.90;99.90;;;;;;5075877;28;20028;-42
2022/10/28 12:25:22;;;;;;;5.65;3.08;;;21.90;99.90;;;;;;5081219;28;20430;-40
2022/10/28 12:27:50;;;;;;;12.60;3.55;;;21.90;99.90;;;;;;5094186;28;20538;-42
2022/10/28 12:30:23;;;;;;;;;;;21.90;99.90;;;;;;5094768;28;20115;-41
2022/10/28 12:32:54;;;;;;;16.73;4.40;;;21.80;99.90;;;;;;5093222;28;20367;-40
2022/10/28 12:35:22;;;;;;;14.13;3.70;;;21.80;99.90;;;;;;5091814;28;20398;-40
2022/10/28 12:38:02;;;;;;;18.13;3.50;;;21.70;99.90;;;;;;5078457;28;20476;-44
2022/10/28 12:40:44;;;;;;;15.98;3.45;;;21.70;99.90;;;;;;5074380;28;20021;-42
2022/10/28 12:43:18;;;;;;;18.85;3.75;;;21.60;99.90;;;;;;5091523;28;20051;-43
2022/10/28 12:45:47;;;;;;;9.50;3.05;;;21.60;99.90;;;;;;5086764;28;20384;-40
2022/10/28 12:48:24;;;;;;;13.85;3.03;;;21.50;99.90;;;;;;5091622;28;20480;-42
2022/10/28 12:51:13;;;;;;;14.23;3.75;;;21.50;99.90;;;;;;5085480;28;20036;-42
2022/10/28 12:53:45;;;;;;;11.85;3.35;;;21.60;99.90;;;;;;5079690;28;21026;-42
2022/10/28 12:56:39;;;;;;;5.07;2.85;;;21.60;99.90;;;;;;5078502;28;20369;-46
2022/10/28 12:59:04;;;;;;;8.40;3.30;;;21.50;99.90;;;;;;5077258;28;20044;-50
2022/10/28 13:01:32;;;;;;;12.32;2.83;;;21.60;99.90;;;;;;5088963;28;20043;-42
2022/10/28 13:03:57;;;;;;;16.05;3.38;;;21.50;99.90;;;;;;5074814;28;20500;-42
2022/10/28 13:06:23;;;;;;;12.02;3.75;;;21.50;99.90;;;;;;5090477;28;20028;-44
2022/10/28 13:09:20;;;;;;;14.50;3.97;;;21.50;99.90;;;;;;5075971;28;20032;-45
2022/10/28 13:12:09;;;;;;;20.08;3.35;;;21.50;99.90;;;;;;5072882;28;20525;-45
2022/10/28 13:14:40;;;;;;;12.10;3.47;;;21.50;99.90;;;;;;5082748;28;20032;-44